EST,Max TemperatureF,Mean TemperatureF,Min TemperatureF,Max Dew PointF,MeanDew PointF,Min DewpointF,Max Humidity, Mean Humidity, Min Humidity, Max Sea Level PressureIn, Mean Sea Level PressureIn, Min Sea Level PressureIn, Max VisibilityMiles, Mean VisibilityMiles, Min VisibilityMiles, Max Wind SpeedMPH, Mean Wind SpeedMPH, Max Gust SpeedMPH,PrecipitationIn, CloudCover, Events, WindDirDegrees
2013-1-1,31,25,18,27,19,10,92,77,62,30.10,30.04,29.96,10,7,3,14,7,17,0.03,8,Snow,296
2013-1-2,22,16,9,14,10,6,84,76,67,30.25,30.17,30.08,10,9,6,13,6,16,T,7,Snow,238
2013-1-3,29,17,4,20,13,1,92,74,55,30.23,30.17,30.05,10,8,6,21,9,26,T,7,Snow,221
2013-1-4,29,26,22,20,16,14,75,67,58,30.24,30.16,30.06,10,10,7,26,16,35,T,4,Snow,236
2013-1-5,33,28,23,23,19,16,81,69,56,30.37,30.25,30.09,10,9,7,14,7,17,T,7,Snow,204
2013-1-6,36,34,31,30,27,23,89,77,64,30.22,30.05,29.96,10,6,1,16,10,22,0.03,8,Rain-Snow,231
2013-1-7,33,29,25,27,24,20,85,73,61,30.45,30.33,30.22,9,5,1,16,8,21,0.02,6,Rain-Snow,227
2013-1-8,41,32,22,26,22,19,88,67,45,30.35,30.31,30.26,10,8,5,13,7,17,0.00,5,,176
2013-1-9,45,39,33,36,28,24,79,66,53,30.48,30.26,30.16,10,10,10,23,12,28,0.03,4,Rain,216
2013-1-10,40,32,23,27,26,23,92,73,54,30.61,30.50,30.28,10,9,4,15,6,18,0.00,7,,114
2013-1-11,52,46,39,48,39,24,93,74,54,30.25,30.02,29.91,10,8,1,18,10,31,0.39,7,Rain,153
2013-1-12,60,54,47,52,50,46,100,86,72,30.05,30.00,29.91,10,6,0,17,8,22,T,7,Fog-Rain,175
2013-1-13,67,54,41,55,52,39,93,78,63,29.93,29.85,29.79,10,9,2,25,10,33,0.14,8,Rain,205
2013-1-14,41,33,24,39,26,18,92,78,63,30.43,30.23,29.94,10,9,2,25,8,32,0.03,8,Rain,314
2013-1-15,32,27,22,21,19,18,88,73,58,30.41,30.31,30.12,10,10,10,10,6,15,0.00,8,,13
2013-1-16,35,32,29,27,23,21,78,67,56,30.09,29.95,29.88,10,10,7,16,7,22,0.00,8,,223
2013-1-17,36,31,26,26,23,21,75,66,56,30.20,30.11,30.00,10,9,1,22,8,28,0.01,8,Snow,277
2013-1-18,33,25,16,19,13,7,81,63,45,30.49,30.35,30.17,10,9,2,25,11,31,0.02,6,Snow,239
2013-1-19,50,42,33,24,20,16,48,39,29,30.15,29.99,29.74,10,10,10,26,16,35,0.00,4,,215
2013-1-20,46,34,21,30,15,6,81,63,44,30.16,29.98,29.68,10,8,2,35,17,46,0.01,6,Snow,274
2013-1-21,22,16,9,14,8,0,88,70,52,30.12,29.99,29.87,10,6,0,22,12,30,0.05,7,Fog-Snow,256
2013-1-22,10,8,5,0,-2,-4,83,70,57,30.29,30.19,30.01,10,6,0,23,14,30,0.03,6,Snow,264
2013-1-23,14,9,3,7,1,-5,83,71,58,30.30,30.21,30.07,10,7,2,17,9,22,0.02,5,Snow,227
2013-1-24,19,11,3,10,4,-1,91,68,45,30.59,30.32,30.02,10,7,0,21,6,25,0.03,6,Snow,304
2013-1-25,16,13,9,11,8,3,80,74,67,30.51,30.18,29.99,10,4,0,13,5,16,0.09,8,Snow,141
2013-1-26,27,21,15,18,15,12,92,75,57,30.47,30.22,30.03,10,5,1,16,5,20,0.07,8,Snow,249
2013-1-27,28,17,5,23,13,2,92,74,55,30.55,30.45,30.30,10,8,1,14,6,17,0.09,7,Rain-Snow,148
2013-1-28,46,37,27,45,35,23,93,89,85,30.28,30.08,29.94,8,3,0,18,11,26,0.27,8,Fog-Rain-Snow,191
2013-1-29,60,51,41,54,49,40,100,86,72,30.04,29.92,29.71,10,3,0,17,9,29,0.11,7,Fog-Rain,188
2013-1-30,64,51,38,55,50,34,93,79,64,29.67,29.37,29.16,10,8,0,32,15,43,0.21,8,Rain-Thunderstorm,199
2013-1-31,38,28,18,33,17,7,92,74,55,29.86,29.61,29.28,10,5,0,31,20,43,0.13,8,Rain-Snow,257